WetterOnline ( https://www.wetteronline.de )

Wetter aktuell Grothusenkoog

Aktuelles Wetter: Heide/Elpersbüttel (5m)

6-stündlich | Neueste Meldungen
Ortszeit Temperatur Wetter
Do, 29.10. 13:00 10.6° C leicht bewölkt
Do, 29.10. 7:00 7.7° C bedeckt
Do, 29.10. 1:00 9.5° C wolkig
Mi, 28.10. 19:00 10.4° C bewölkt
Mi, 28.10. 13:00 13.0° C leicht bewölkt
Mi, 28.10. 7:00 9.7° C wolkenlos
Mi, 28.10. 1:00 9.7° C bewölkt
Di, 27.10. 19:00 10.0° C bewölkt
Ortszeit Temperatur Wetter
Do, 29.10. 15:30 9.7° C Regen
Do, 29.10. 15:20 9.7° C Regen
Do, 29.10. 15:10 10.1° C leichter Regen
Do, 29.10. 15:00 10.3° C leichter Regen
Do, 29.10. 14:50 10.3° C leichter Regen
Do, 29.10. 14:40 10.6° C bedeckt
Do, 29.10. 14:30 10.4° C bedeckt
Do, 29.10. 14:00 10.8° C wolkig
Ortszeit Relative Feuchte Sichtweite
Do, 29.10. 13:00 82% 35 km
Do, 29.10. 7:00 88% 40 km
Do, 29.10. 1:00 93% 35 km
Mi, 28.10. 19:00 78% 60 km
Mi, 28.10. 13:00 73% 50 km
Mi, 28.10. 7:00 92% 35 km
Mi, 28.10. 1:00 83% 50 km
Di, 27.10. 19:00 83% 40 km
Ortszeit Relative Feuchte Sichtweite
Do, 29.10. 15:30 92% 6 km
Do, 29.10. 15:20 92% -
Do, 29.10. 15:10 91% -
Do, 29.10. 15:00 89% 12 km
Do, 29.10. 14:50 89% -
Do, 29.10. 14:40 88% -
Do, 29.10. 14:30 88% 27 km
Do, 29.10. 14:00 86% 29 km
Ortszeit Niederschlagsmenge Niederschlagsart
Do, 29.10. 13:00 2 l/m2 in 6 Std. Regen
Do, 29.10. 7:00 3 l/m2 in 12 Std. Regen
Do, 29.10. 1:00 0.4 l/m2 in 6 Std. Regen
Mi, 28.10. 19:00 0.1 l/m2 in 12 Std. Regen
Mi, 28.10. 13:00 0.1 l/m2 in 6 Std. Regen
Mi, 28.10. 7:00 3 l/m2 in 12 Std. Regen
Mi, 28.10. 1:00 0.5 l/m2 in 6 Std. Regen
Di, 27.10. 19:00 0.1 l/m2 in 12 Std. Regen
Ortszeit Niederschlagsmenge Niederschlagsart
Do, 29.10. 15:30 0.9 l/m2 in 1 Std. -
Do, 29.10. 15:20 keine Meldung -
Do, 29.10. 15:10 keine Meldung -
Do, 29.10. 15:00 0.1 l/m2 in 1 Std. Regen
Do, 29.10. 14:50 keine Meldung -
Do, 29.10. 14:40 keine Meldung -
Do, 29.10. 14:30 0.1 l/m2 in 1 Std. Schneeregen
Do, 29.10. 14:00 0.0 l/m2 in 1 Std. -
Ortszeit Stärke Spitze Richtung
km/h Bft. km/h Grad Sektor
Do, 29.10. 13:00 33 5 52 250° W
Do, 29.10. 7:00 25 4 72 230° SW
Do, 29.10. 1:00 22 4 39 190° S
Mi, 28.10. 19:00 29 5 54 190° S
Mi, 28.10. 13:00 29 5 43 210° SW
Mi, 28.10. 7:00 26 4 52 210° SW
Mi, 28.10. 1:00 26 4 46 170° S
Di, 27.10. 19:00 22 4 50 180° S
Ortszeit Stärke Spitze Richtung
km/h Bft. km/h Grad Sektor
Do, 29.10. 15:30 25 4 36 250° W
Do, 29.10. 15:20 25 4 - 250° W
Do, 29.10. 15:10 22 4 - 220° SW
Do, 29.10. 15:00 25 4 47 230° SW
Do, 29.10. 14:50 25 4 - 230° SW
Do, 29.10. 14:40 26 4 - 240° SW
Do, 29.10. 14:30 31 5 46 240° SW
Do, 29.10. 14:00 32 5 47 240° SW
Ortszeit Untergrenze Bedeckung Gattung
total tief tief mittel hoch
Do, 29.10. 13:00 750 m 3/8 4/8 - - -
Do, 29.10. 7:00 1050 m 8/8 8/8 - - -
Do, 29.10. 1:00 300 m 6/8 6/8 - - -
Mi, 28.10. 19:00 1470 m 8/8 4/8 - - -
Mi, 28.10. 13:00 5100 m 2/8 4/8 - - -
Mi, 28.10. 7:00 - 0/8 0/8 - - -
Mi, 28.10. 1:00 690 m 7/8 7/8 - - -
Di, 27.10. 19:00 1020 m 8/8 6/8 - - -
Ortszeit Bedeckungsgrad in Achtel und Wolkenuntergrenze
Do, 29.10. 15:30 1(660m) 7(1440m) 8(1500m)
Do, 29.10. 15:20 1(660m) 2(1080m) 7(1440m)
Do, 29.10. 15:10 2(660m) 4(1200m) 8(1500m)
Do, 29.10. 15:00 3(1170m) 7(1440m) 8(2100m)
Do, 29.10. 14:50 3(1170m) 7(1440m) 8(2100m)
Do, 29.10. 14:40 3(1230m) 6(1440m) 8(2100m)
Do, 29.10. 14:30 2(570m) 4(1440m) 8(2100m)
Do, 29.10. 14:00 1(1500m) 8(3000m) 8(3000m)
Ortszeit Luftdruck NN (hPa) Tendenz (hPa in 3 Std.)
Do, 29.10. 13:00 1010 + 2,6
Do, 29.10. 7:00 1005 + 2,4
Do, 29.10. 1:00 1003 - 1,1
Mi, 28.10. 19:00 1005 + 0,5
Mi, 28.10. 13:00 1005 + 0,6
Mi, 28.10. 7:00 1002 + 2,2
Mi, 28.10. 1:00 999 - 1,8
Di, 27.10. 19:00 1002 - 0,4
Ortszeit Luftdruck NN (hPa) Tendenz (hPa in 3 Std.)
Do, 29.10. 15:30 1012 + 2,0
Do, 29.10. 15:20 1012 keine Meldung
Do, 29.10. 15:10 1012 keine Meldung
Do, 29.10. 15:00 1012 + 2,0
Do, 29.10. 14:50 1012 keine Meldung
Do, 29.10. 14:40 1012 keine Meldung
Do, 29.10. 14:30 1011 + 2,0
Do, 29.10. 14:00 1011 + 2,3
Ortszeit Schneehöhe (cm)
Do, 29.10. 13:00 0
Do, 29.10. 7:00 0
Do, 29.10. 1:00 0
Mi, 28.10. 19:00 0
Mi, 28.10. 13:00 0
Mi, 28.10. 7:00 0
Mi, 28.10. 1:00 0
Di, 27.10. 19:00 0
Ortszeit Schneehöhe (cm)
Do, 29.10. 15:30 0
Do, 29.10. 15:20 0
Do, 29.10. 15:10 0
Do, 29.10. 15:00 0
Do, 29.10. 14:50 0
Do, 29.10. 14:40 0
Do, 29.10. 14:30 0
Do, 29.10. 14:00 0
Link zu dieser Seite / Seite empfehlen

Das Wetter in ...